Terminal Aerodrome Forecast
Issued by NWS

Home | Current Version | Previous Version | Text Only | Print | Product List | Glossary On
Versions: 1 2 3 4 5 6 7 8 9 10 11 12 13 14 15 16 17 18 19 20 21 22 23 24
000
FTAK31 PAFA 211737
TAFAOR
TAF
PAOR 211737Z 2118/2218 10003KT P6SM SCT110
     FM212100 VRB04KT P6SM VCSH SCT035 BKN050 OVC100
     FM220000 32004KT 6SM -RA BR SCT035 BKN050 OVC100
     FM220500 VRB03KT 3SM -RA BR SCT010 OVC025
     FM221600 VRB03KT 5SM -SHRA BR SCT025 OVC050=

USA.gov is the U.S. government's official web portal to all federal, state and local government web resources and services.